KFPR/FPR METAR and TAF weather

Enter ICAO airport designator
Station Type Date Time Source
KFPR METAR 2021/09/23 18:07 UTC NOAA

KFPR 231807Z 00000KT 10SM TS SCT027 BKN035 BKN046 26/23 A2990 RMK AO2 LTG DSNT SE AND S TSB1755 T02610233


Station Type Date Time Source
KFPR Decoded METAR 2021/09/23 18:07 UTC NOAA

FORT PIERCE ST LUCIE, FL, United States (KFPR) 27-30N 080-23W 13M
Sep 23, 2021 - 02:07 PM EDT / 2021.09.23 1807 UTC
Wind: Calm:0
Visibility: 10 mile(s):0
Sky conditions: mostly cloudy
Weather: thunder; Lightning observed
Temperature: 79.0 F (26.1 C)
Dew Point: 73.9 F (23.3 C)
Relative Humidity: 84%
Pressure (altimeter): 29.9 in. Hg (1012 hPa)
ob: KFPR 231807Z 00000KT 10SM TS SCT027 BKN035 BKN046 26/23 A2990 RMK AO2 LTG DSNT SE AND S TSB1755 T02610233
cycle: 18

Station Type Date Time Source
KFPR TAF 2021/09/23 18:24 UTC NOAA

TAF KFPR 231721Z 2318/2418 VRB06KT P6SM VCTS SCT030CB BKN040 BKN080
TEMPO 2318/2321 3SM TSRA BKN030CB
FM240000 VRB03KT P6SM VCSH SCT030 BKN060 BKN100
FM241400 05006KT P6SM SCT035 SCT050

Example: see airport list